createdAt,value
2022-08-21T00:00:45.458Z,17.82
2022-08-21T00:03:56.353Z,17.86
2022-08-21T00:07:03.093Z,17.95
2022-08-21T00:10:10.832Z,18.05
2022-08-21T00:13:18.894Z,18.14
2022-08-21T00:16:24.987Z,18.26
2022-08-21T00:19:33.517Z,18.22
2022-08-21T00:22:40.358Z,18.22
2022-08-21T00:25:48.411Z,18.17
2022-08-21T00:28:54.012Z,18.25
2022-08-21T00:32:01.278Z,18.22
2022-08-21T00:35:12.791Z,18.16
2022-08-21T00:38:18.848Z,18.09
2022-08-21T00:41:36.983Z,18.06
2022-08-21T00:44:44.019Z,18.01
2022-08-21T00:47:49.611Z,18.01
2022-08-21T00:51:05.039Z,18.03
2022-08-21T00:54:18.454Z,18.00
2022-08-21T00:57:34.409Z,17.98
2022-08-21T01:00:45.535Z,18.04
2022-08-21T01:03:51.891Z,18.05
2022-08-21T01:07:00.918Z,17.98
2022-08-21T01:10:09.875Z,18.07
2022-08-21T01:13:45.793Z,18.14
2022-08-21T01:16:56.554Z,18.20
2022-08-21T01:20:03.255Z,18.06
2022-08-21T01:23:11.875Z,18.03
2022-08-21T01:26:22.553Z,18.08
2022-08-21T01:29:46.837Z,18.03
2022-08-21T01:32:53.856Z,18.05
2022-08-21T01:35:59.519Z,18.04
2022-08-21T01:39:10.362Z,17.99
2022-08-21T01:42:17.455Z,18.03
2022-08-21T01:45:24.616Z,18.02
2022-08-21T01:48:30.306Z,17.97
2022-08-21T01:51:36.192Z,17.97
2022-08-21T01:54:45.950Z,17.95
2022-08-21T01:58:03.799Z,17.92
2022-08-21T02:01:10.497Z,17.85
2022-08-21T02:04:16.321Z,17.94
2022-08-21T02:07:22.441Z,18.06
2022-08-21T02:10:35.517Z,18.12
2022-08-21T02:13:41.063Z,18.27
2022-08-21T02:16:52.179Z,18.33
2022-08-21T02:20:14.509Z,18.37
2022-08-21T02:23:20.638Z,18.40
2022-08-21T02:26:35.700Z,18.39
2022-08-21T02:29:41.280Z,18.47
2022-08-21T02:32:50.692Z,18.41
2022-08-21T02:35:59.564Z,18.44
2022-08-21T02:39:10.752Z,18.47
2022-08-21T02:42:19.315Z,18.61
2022-08-21T02:45:25.365Z,18.66
2022-08-21T02:48:52.172Z,18.70
2022-08-21T02:51:58.421Z,18.66
2022-08-21T02:55:04.603Z,18.62
2022-08-21T02:58:13.858Z,18.58
2022-08-21T03:01:21.386Z,18.65
2022-08-21T03:04:27.740Z,18.63
2022-08-21T03:07:34.784Z,18.51
2022-08-21T03:10:42.365Z,18.56
2022-08-21T03:13:51.023Z,18.56
2022-08-21T03:16:56.673Z,18.60
2022-08-21T03:20:09.375Z,18.63
2022-08-21T03:23:18.350Z,18.68
2022-08-21T03:26:26.211Z,18.79
2022-08-21T03:29:36.206Z,18.73
2022-08-21T03:32:42.310Z,18.78
2022-08-21T03:35:55.677Z,18.80
2022-08-21T03:39:01.347Z,18.80
2022-08-21T03:42:08.002Z,18.85
2022-08-21T03:45:18.041Z,18.81
2022-08-21T03:48:24.237Z,18.79
2022-08-21T03:51:30.011Z,18.66
2022-08-21T03:54:40.565Z,18.77
2022-08-21T03:57:46.361Z,18.80
2022-08-21T04:01:01.769Z,18.89
2022-08-21T04:04:08.997Z,18.90
2022-08-21T04:07:14.626Z,18.95
2022-08-21T04:10:22.784Z,18.97
2022-08-21T04:13:30.144Z,19.02
2022-08-21T04:16:38.560Z,19.06
2022-08-21T04:19:44.257Z,18.99
2022-08-21T04:22:51.799Z,19.07
2022-08-21T04:26:00.263Z,19.11
2022-08-21T04:29:07.682Z,19.16
2022-08-21T04:32:27.081Z,19.22
2022-08-21T04:35:33.948Z,19.28
2022-08-21T04:38:39.779Z,19.28
2022-08-21T04:41:50.543Z,19.31
2022-08-21T04:44:56.760Z,19.31
2022-08-21T04:48:14.104Z,19.35
2022-08-21T04:51:28.323Z,19.28
2022-08-21T04:54:36.766Z,19.13
2022-08-21T04:57:48.598Z,19.26
2022-08-21T05:01:02.060Z,19.28
2022-08-21T05:04:16.720Z,19.26
2022-08-21T05:07:42.386Z,19.14
2022-08-21T05:10:49.780Z,19.13
2022-08-21T05:13:57.332Z,19.11
2022-08-21T05:17:04.935Z,19.10
2022-08-21T05:20:16.038Z,19.14
2022-08-21T05:23:22.842Z,19.24
2022-08-21T05:26:31.228Z,19.28
2022-08-21T05:29:38.391Z,19.35
2022-08-21T05:32:44.128Z,19.39
2022-08-21T05:35:54.205Z,19.28
2022-08-21T05:39:00.078Z,19.16
2022-08-21T05:42:05.804Z,19.19
2022-08-21T05:45:12.448Z,19.25
2022-08-21T05:48:21.660Z,19.22
2022-08-21T05:51:30.142Z,19.17
2022-08-21T05:54:36.110Z,19.08
2022-08-21T05:57:42.499Z,19.10
2022-08-21T06:00:51.157Z,19.12
2022-08-21T06:03:56.765Z,19.21
2022-08-21T06:07:16.065Z,19.13
2022-08-21T06:10:22.095Z,18.89
2022-08-21T06:13:28.426Z,18.56
2022-08-21T06:16:34.052Z,18.33
2022-08-21T06:19:40.110Z,18.28
2022-08-21T06:22:48.390Z,18.17
2022-08-21T06:25:53.981Z,17.95
2022-08-21T06:29:03.308Z,17.94
2022-08-21T06:32:10.776Z,17.94
2022-08-21T06:35:16.345Z,17.97
2022-08-21T06:38:24.738Z,18.16
2022-08-21T06:41:30.564Z,18.29
2022-08-21T06:44:44.877Z,18.17
2022-08-21T06:47:52.492Z,18.02
2022-08-21T06:50:58.074Z,18.09
2022-08-21T06:54:12.797Z,17.91
2022-08-21T06:57:18.450Z,18.01
2022-08-21T07:00:24.457Z,17.99
2022-08-21T07:03:35.220Z,17.94
2022-08-21T07:06:40.900Z,17.82
2022-08-21T07:09:49.045Z,18.03
2022-08-21T07:13:00.434Z,17.99
2022-08-21T07:16:07.875Z,18.00
2022-08-21T07:19:13.932Z,17.94
2022-08-21T07:22:24.323Z,18.01
2022-08-21T07:25:32.602Z,17.94
2022-08-21T07:28:38.384Z,18.04
2022-08-21T07:31:43.916Z,18.02
2022-08-21T07:34:49.555Z,18.01
2022-08-21T07:37:55.163Z,17.87
2022-08-21T07:41:06.114Z,17.74
2022-08-21T07:44:12.660Z,18.15
2022-08-21T07:47:41.607Z,18.17
2022-08-21T07:50:45.169Z,18.02
2022-08-21T07:53:55.082Z,18.24
2022-08-21T07:57:09.313Z,18.13
2022-08-21T08:00:20.721Z,18.44
2022-08-21T08:03:29.140Z,18.66
2022-08-21T08:06:39.953Z,18.81
2022-08-21T08:09:45.451Z,18.94
2022-08-21T08:12:55.958Z,18.91
2022-08-21T08:16:01.666Z,19.17
2022-08-21T08:19:27.530Z,19.20
2022-08-21T08:22:40.170Z,19.39
2022-08-21T08:25:48.014Z,19.28
2022-08-21T08:28:56.241Z,19.38
2022-08-21T08:32:04.934Z,19.63
2022-08-21T08:35:13.046Z,19.99
2022-08-21T08:38:24.454Z,20.36
2022-08-21T08:41:31.263Z,20.67
2022-08-21T08:44:43.828Z,20.68
2022-08-21T08:47:59.378Z,21.13
2022-08-21T08:51:12.693Z,21.65
2022-08-21T08:54:28.075Z,22.09
2022-08-21T08:57:35.701Z,22.43
2022-08-21T09:00:44.137Z,22.72
2022-08-21T09:03:55.311Z,22.88
2022-08-21T09:07:21.478Z,21.98
2022-08-21T09:10:45.161Z,22.20
2022-08-21T09:14:13.117Z,22.11
2022-08-21T09:17:52.868Z,21.96
2022-08-21T09:21:16.796Z,21.46
2022-08-21T09:24:37.594Z,20.88
2022-08-21T09:27:43.701Z,20.62
2022-08-21T09:30:49.242Z,20.24
2022-08-21T09:34:03.254Z,20.35
2022-08-21T09:37:19.619Z,20.03
2022-08-21T09:40:40.484Z,19.51
2022-08-21T09:43:58.130Z,19.48
2022-08-21T09:47:03.832Z,19.60
2022-08-21T09:50:20.802Z,19.34
2022-08-21T09:53:35.631Z,19.33
2022-08-21T09:57:10.122Z,19.31
2022-08-21T10:00:30.888Z,19.35
2022-08-21T10:03:39.561Z,19.24
2022-08-21T10:06:47.753Z,19.26
2022-08-21T10:10:06.118Z,19.21
2022-08-21T10:13:24.726Z,19.12
2022-08-21T10:16:50.271Z,19.29
2022-08-21T10:20:09.521Z,19.43
2022-08-21T10:23:45.025Z,19.68
2022-08-21T10:27:16.789Z,19.67
2022-08-21T10:30:54.539Z,19.50
2022-08-21T10:34:34.915Z,19.43
2022-08-21T10:38:01.652Z,19.32
2022-08-21T10:41:27.460Z,19.32
2022-08-21T10:44:58.866Z,19.15
2022-08-21T10:48:17.470Z,19.09
2022-08-21T10:51:38.045Z,19.11
2022-08-21T10:54:59.993Z,19.11
2022-08-21T10:58:16.011Z,18.95
2022-08-21T11:01:32.765Z,18.84
2022-08-21T11:04:52.242Z,18.79
2022-08-21T11:08:10.789Z,18.82
2022-08-21T11:11:29.419Z,18.77
2022-08-21T11:14:57.906Z,18.70
2022-08-21T11:18:32.152Z,18.68
2022-08-21T11:21:49.908Z,18.67
2022-08-21T11:25:07.508Z,18.70
2022-08-21T11:28:33.556Z,18.81
2022-08-21T11:32:07.992Z,19.00
2022-08-21T11:35:30.018Z,19.12
2022-08-21T11:38:44.355Z,19.06
2022-08-21T11:42:08.988Z,18.99
2022-08-21T11:45:35.462Z,19.11
2022-08-21T11:49:07.657Z,18.97
2022-08-21T11:52:27.130Z,18.72
2022-08-21T11:55:43.018Z,18.84
2022-08-21T11:59:01.871Z,19.07
2022-08-21T12:02:17.875Z,19.27
2022-08-21T12:05:39.546Z,19.06
2022-08-21T12:08:49.742Z,18.98
2022-08-21T12:12:08.862Z,18.91
2022-08-21T12:15:29.943Z,18.90
2022-08-21T12:18:38.772Z,18.73
2022-08-21T12:22:16.398Z,18.43
2022-08-21T12:25:25.590Z,18.06
2022-08-21T12:28:35.852Z,17.86
2022-08-21T12:31:59.550Z,17.62
2022-08-21T12:35:23.848Z,17.24
2022-08-21T12:38:52.651Z,16.97
2022-08-21T12:42:12.384Z,16.71
2022-08-21T12:45:30.094Z,16.62
2022-08-21T12:48:45.052Z,16.51
2022-08-21T12:52:01.676Z,16.53
2022-08-21T12:55:18.178Z,16.38
2022-08-21T12:58:26.336Z,16.34
2022-08-21T13:01:41.486Z,16.38
2022-08-21T13:04:51.438Z,16.39
2022-08-21T13:07:57.692Z,16.35
2022-08-21T13:11:15.234Z,16.29
2022-08-21T13:14:32.293Z,16.11
2022-08-21T13:17:51.772Z,15.89
2022-08-21T13:21:10.483Z,15.94
2022-08-21T13:24:41.909Z,16.02
2022-08-21T13:28:16.663Z,15.94
2022-08-21T13:31:34.692Z,15.78
2022-08-21T13:34:42.210Z,15.92
2022-08-21T13:37:53.057Z,15.93
2022-08-21T13:41:07.919Z,15.93
2022-08-21T13:44:27.743Z,15.92
2022-08-21T13:47:33.645Z,16.06
2022-08-21T13:50:51.523Z,15.98
2022-08-21T13:54:01.561Z,15.92
2022-08-21T13:57:19.230Z,15.89
2022-08-21T14:00:35.939Z,15.91
2022-08-21T14:03:50.386Z,15.87
2022-08-21T14:06:58.159Z,15.85
2022-08-21T14:10:08.826Z,15.70
2022-08-21T14:13:43.573Z,15.80
2022-08-21T14:17:24.470Z,15.81
2022-08-21T14:20:36.317Z,15.87
2022-08-21T14:23:42.733Z,16.01
2022-08-21T14:26:54.513Z,16.03
2022-08-21T14:30:05.564Z,16.06
2022-08-21T14:33:30.269Z,16.10
2022-08-21T14:36:35.858Z,16.16
2022-08-21T14:39:45.148Z,15.97
2022-08-21T14:42:51.964Z,15.94
2022-08-21T14:45:58.217Z,15.98
2022-08-21T14:49:13.204Z,15.99
2022-08-21T14:52:20.124Z,15.86
2022-08-21T14:55:26.326Z,15.78
2022-08-21T14:58:35.158Z,15.70
2022-08-21T15:01:48.356Z,15.50
2022-08-21T15:05:00.371Z,15.59
2022-08-21T15:08:06.480Z,15.51
2022-08-21T15:11:41.853Z,15.34
2022-08-21T15:14:46.873Z,15.20
2022-08-21T15:17:52.421Z,15.35
2022-08-21T15:21:01.790Z,15.26
2022-08-21T15:24:09.011Z,15.11
2022-08-21T15:27:24.793Z,15.09
2022-08-21T15:30:31.367Z,15.06
2022-08-21T15:33:53.073Z,15.17
2022-08-21T15:37:02.059Z,15.09
2022-08-21T15:40:13.153Z,14.93
2022-08-21T15:43:30.675Z,15.02
2022-08-21T15:46:49.605Z,14.94
2022-08-21T15:49:55.378Z,14.92
2022-08-21T15:53:13.899Z,15.05
2022-08-21T15:56:28.805Z,15.05
2022-08-21T15:59:45.017Z,14.90
2022-08-21T16:02:57.311Z,14.81
2022-08-21T16:06:04.917Z,14.77
2022-08-21T16:09:16.821Z,14.74
2022-08-21T16:12:38.478Z,14.85
2022-08-21T16:15:44.500Z,14.85
2022-08-21T16:18:51.991Z,14.75
2022-08-21T16:21:59.773Z,14.75
2022-08-21T16:25:10.275Z,14.74
2022-08-21T16:28:24.969Z,14.85
2022-08-21T16:31:31.162Z,14.75
2022-08-21T16:34:37.153Z,14.76
2022-08-21T16:37:43.839Z,14.79
2022-08-21T16:40:59.536Z,14.75
2022-08-21T16:44:08.526Z,14.71
2022-08-21T16:47:26.453Z,14.59
2022-08-21T16:50:32.804Z,14.44
2022-08-21T16:53:38.386Z,14.44
2022-08-21T16:56:47.938Z,14.41
2022-08-21T16:59:54.129Z,14.46
2022-08-21T17:03:00.822Z,14.52
2022-08-21T17:06:08.288Z,14.50
2022-08-21T17:09:14.247Z,14.26
2022-08-21T17:12:22.890Z,14.40
2022-08-21T17:15:40.797Z,14.46
2022-08-21T17:18:48.041Z,14.55
2022-08-21T17:21:57.604Z,14.62
2022-08-21T17:25:03.240Z,14.57
2022-08-21T17:28:16.873Z,14.61
2022-08-21T17:31:22.799Z,14.61
2022-08-21T17:34:31.828Z,14.61
2022-08-21T17:37:37.800Z,14.60
2022-08-21T17:40:44.257Z,14.58
2022-08-21T17:43:55.472Z,14.55
2022-08-21T17:47:01.428Z,14.51
2022-08-21T17:50:09.320Z,14.51
2022-08-21T17:53:15.076Z,14.52
2022-08-21T17:56:23.245Z,14.49
2022-08-21T17:59:38.642Z,14.49
2022-08-21T18:02:51.364Z,14.47
2022-08-21T18:05:57.342Z,14.40
2022-08-21T18:09:03.088Z,14.36
2022-08-21T18:12:09.901Z,14.40
2022-08-21T18:15:22.290Z,14.39
2022-08-21T18:18:35.696Z,14.40
2022-08-21T18:21:41.498Z,14.28
2022-08-21T18:24:47.317Z,14.42
2022-08-21T18:27:53.975Z,14.47
2022-08-21T18:31:02.580Z,14.42
2022-08-21T18:34:21.826Z,14.44
2022-08-21T18:37:27.501Z,14.42
2022-08-21T18:40:38.104Z,14.51
2022-08-21T18:43:44.297Z,14.52
2022-08-21T18:46:59.678Z,14.57
2022-08-21T18:50:05.950Z,14.54
2022-08-21T18:53:27.474Z,14.59
2022-08-21T18:56:37.118Z,14.65
2022-08-21T18:59:44.258Z,14.61
2022-08-21T19:02:52.848Z,14.72
2022-08-21T19:05:58.762Z,14.69
2022-08-21T19:09:05.611Z,14.67
2022-08-21T19:12:14.787Z,14.73
2022-08-21T19:15:25.327Z,14.64
2022-08-21T19:18:41.976Z,14.64
2022-08-21T19:21:49.335Z,14.62
2022-08-21T19:24:55.332Z,14.65
2022-08-21T19:28:01.777Z,14.55
2022-08-21T19:31:16.297Z,14.57
2022-08-21T19:34:31.514Z,14.43
2022-08-21T19:37:37.145Z,14.46
2022-08-21T19:40:43.551Z,14.47
2022-08-21T19:43:56.354Z,14.48
2022-08-21T19:50:32.463Z,14.53
2022-08-21T19:53:38.101Z,14.49
2022-08-21T19:56:46.518Z,14.48
2022-08-21T19:59:54.640Z,14.51
2022-08-21T20:03:01.065Z,14.42
2022-08-21T20:06:13.261Z,14.45
2022-08-21T20:09:21.571Z,14.49
2022-08-21T20:12:28.156Z,14.52
2022-08-21T20:15:34.428Z,14.57
2022-08-21T20:18:41.904Z,14.69
2022-08-21T20:21:53.747Z,14.71
2022-08-21T20:24:59.456Z,14.74
2022-08-21T20:28:06.196Z,14.76
2022-08-21T20:31:15.332Z,14.80
2022-08-21T20:34:21.958Z,14.44
2022-08-21T20:37:36.593Z,14.15
2022-08-21T20:40:45.565Z,14.12
2022-08-21T20:43:54.031Z,14.09
2022-08-21T20:47:08.873Z,14.17
2022-08-21T20:50:31.966Z,14.21
2022-08-21T20:53:53.659Z,14.30
2022-08-21T20:57:16.170Z,14.27
2022-08-21T21:00:27.885Z,14.26
2022-08-21T21:03:44.088Z,14.25
2022-08-21T21:06:58.415Z,14.32
2022-08-21T21:10:21.235Z,14.36
2022-08-21T21:13:37.642Z,14.36
2022-08-21T21:17:02.049Z,14.35
2022-08-21T21:20:25.061Z,14.38
2022-08-21T21:23:43.756Z,14.41
2022-08-21T21:27:00.778Z,14.46
2022-08-21T21:30:38.448Z,14.46
2022-08-21T21:33:44.196Z,14.48
2022-08-21T21:37:05.016Z,14.45
2022-08-21T21:40:42.545Z,14.39
2022-08-21T21:44:28.914Z,14.43
2022-08-21T21:47:58.632Z,14.39
2022-08-21T21:51:21.666Z,14.31
2022-08-21T21:55:01.078Z,14.37
2022-08-21T21:58:44.693Z,14.44
2022-08-21T22:02:05.445Z,14.55
2022-08-21T22:05:24.742Z,14.61
2022-08-21T22:08:50.739Z,14.66
2022-08-21T22:12:10.752Z,14.68
2022-08-21T22:15:26.437Z,14.69
2022-08-21T22:18:45.339Z,14.72
2022-08-21T22:22:01.624Z,14.77
2022-08-21T22:25:22.178Z,14.83
2022-08-21T22:28:32.969Z,14.85
2022-08-21T22:31:38.727Z,14.90
2022-08-21T22:35:09.466Z,14.89
2022-08-21T22:38:32.439Z,14.85
2022-08-21T22:41:46.086Z,14.87
2022-08-21T22:44:57.597Z,14.93
2022-08-21T22:48:22.435Z,14.88
2022-08-21T22:51:40.440Z,14.88
2022-08-21T22:54:53.197Z,14.89
2022-08-21T22:58:15.254Z,14.94
2022-08-21T23:01:40.298Z,14.90
2022-08-21T23:04:51.370Z,14.88
2022-08-21T23:08:04.344Z,14.96
2022-08-21T23:14:46.672Z,14.93
2022-08-21T23:18:15.670Z,14.98
2022-08-21T23:21:36.007Z,14.95
2022-08-21T23:25:07.493Z,14.78
2022-08-21T23:28:39.690Z,14.62
2022-08-21T23:32:06.843Z,14.57
2022-08-21T23:35:24.008Z,14.66
2022-08-21T23:38:51.534Z,14.62
2022-08-21T23:42:20.863Z,14.59
2022-08-21T23:45:46.080Z,14.49
2022-08-21T23:49:12.258Z,14.40
2022-08-21T23:52:44.161Z,14.30
2022-08-21T23:56:14.317Z,14.32
2022-08-21T23:59:41.413Z,14.41
